Kezdőlap
METAR-TAF:

METAR-TAF

Repülőterek :

Quincy Regional Airport (Baldwin Field)

Quincy, Illinois, Amerikai Egyesült Államok

földrajzi szélesség: 39-56-33N, földrajzi hosszúság: 091-11-40W, magasság: 234 m

Jelenlegi meteorológiai megfigyelések

A jelentés 48 perccel ezelõtt készült, 11:54 UTC
Szélcsend
Hőmérséklet 22°C
Páratartalom 83%
Légköri nyomás 1018 hPa
Látótávolság: 8.0 km
Derült ég
enyhe esõ, Párásság

METAR: KUIN 281154Z AUTO 00000KT 5SM -RA BR CLR 22/19 A3007 RMK AO2 SLP174 P0000 60000 T02170194 10233 20206 53001 $

Idő: 07:42 (12:42 UTC)

Előrejelzés

A jelentés 1 órával és 22 perccel ezelõtt készült, 11:20 UTC
Az előrejelzés 28-én 12 óra UTC és 29-én 12 óra UTC között érvényes
Délnyugati szél 4 kt
Látótávolság: 10 km
Kevés felhő 25000 lábon

TAF: KUIN 281120Z 2812/2912 23004KT P6SM FEW250

Meteorológiai megfigyelések és előrejelzések több, mint 4000 repülőtéren (METAR és TAF jelentéseket).

A térképen piros és sárga pontok jelzik az elérhető meteorológiai állomásokat.

Mozgassa az egeret a pont fölött, hogy megjelenjen az állomás neve.

Azután kattintson az időjárási megfigyelések és előrejelzések megtekintéséhez.

A térkép megváltoztatása: kattintson a fekete keresztel jelölt zöld gombra ráközelítéshez, a vonallal jelölt zöld gombra távolításhoz, vagy a zöld nyilakra a szomszédos térképek eléréséhez.


METAR-TAF: